sensor_id;sensor_type;location;lat;lon;timestamp;temperature;humidity
2050;DHT22;8478;49.208;8.806;2022-07-29T00:02:21;22.30;99.90
2050;DHT22;8478;49.208;8.806;2022-07-29T00:04:46;22.30;99.90
2050;DHT22;8478;49.208;8.806;2022-07-29T00:07:12;22.30;99.90
2050;DHT22;8478;49.208;8.806;2022-07-29T00:09:38;22.30;99.90
2050;DHT22;8478;49.208;8.806;2022-07-29T00:12:03;22.30;99.90
2050;DHT22;8478;49.208;8.806;2022-07-29T00:14:29;22.30;99.90
2050;DHT22;8478;49.208;8.806;2022-07-29T00:16:55;22.30;99.90
2050;DHT22;8478;49.208;8.806;2022-07-29T00:19:21;22.30;99.90
2050;DHT22;8478;49.208;8.806;2022-07-29T00:21:47;22.30;99.90
2050;DHT22;8478;49.208;8.806;2022-07-29T00:24:12;22.30;99.90
2050;DHT22;8478;49.208;8.806;2022-07-29T00:26:38;22.30;99.90
2050;DHT22;8478;49.208;8.806;2022-07-29T00:29:04;22.30;99.90
2050;DHT22;8478;49.208;8.806;2022-07-29T00:31:30;22.30;99.90
2050;DHT22;8478;49.208;8.806;2022-07-29T00:33:56;22.30;99.90
2050;DHT22;8478;49.208;8.806;2022-07-29T00:36:22;22.30;99.90
2050;DHT22;8478;49.208;8.806;2022-07-29T00:38:49;22.30;99.90
2050;DHT22;8478;49.208;8.806;2022-07-29T00:41:36;22.30;99.90
2050;DHT22;8478;49.208;8.806;2022-07-29T00:44:06;22.30;99.90
2050;DHT22;8478;49.208;8.806;2022-07-29T00:46:32;22.30;99.90
2050;DHT22;8478;49.208;8.806;2022-07-29T00:48:58;22.30;99.90
2050;DHT22;8478;49.208;8.806;2022-07-29T00:51:26;22.30;99.90
2050;DHT22;8478;49.208;8.806;2022-07-29T00:53:53;22.30;99.90
2050;DHT22;8478;49.208;8.806;2022-07-29T00:56:19;22.20;99.90
2050;DHT22;8478;49.208;8.806;2022-07-29T00:58:46;22.30;99.90
2050;DHT22;8478;49.208;8.806;2022-07-29T01:01:13;22.20;99.90
2050;DHT22;8478;49.208;8.806;2022-07-29T01:03:39;22.20;99.90
2050;DHT22;8478;49.208;8.806;2022-07-29T01:06:04;22.20;99.90
2050;DHT22;8478;49.208;8.806;2022-07-29T01:08:31;22.20;99.90
2050;DHT22;8478;49.208;8.806;2022-07-29T01:10:59;22.20;99.90
2050;DHT22;8478;49.208;8.806;2022-07-29T01:13:25;22.20;99.90
2050;DHT22;8478;49.208;8.806;2022-07-29T01:15:58;22.20;99.90
2050;DHT22;8478;49.208;8.806;2022-07-29T01:18:30;22.20;99.90
2050;DHT22;8478;49.208;8.806;2022-07-29T01:26:52;22.20;99.90
2050;DHT22;8478;49.208;8.806;2022-07-29T01:29:48;22.20;99.90
2050;DHT22;8478;49.208;8.806;2022-07-29T01:32:19;22.20;99.90
2050;DHT22;8478;49.208;8.806;2022-07-29T01:37:19;22.20;99.90
2050;DHT22;8478;49.208;8.806;2022-07-29T01:39:48;22.20;99.90
2050;DHT22;8478;49.208;8.806;2022-07-29T01:45:10;22.20;99.90
2050;DHT22;8478;49.208;8.806;2022-07-29T01:47:44;22.20;99.90
2050;DHT22;8478;49.208;8.806;2022-07-29T01:50:16;22.20;99.90
2050;DHT22;8478;49.208;8.806;2022-07-29T01:52:49;22.10;99.90
2050;DHT22;8478;49.208;8.806;2022-07-29T01:55:17;22.20;99.90
2050;DHT22;8478;49.208;8.806;2022-07-29T01:57:47;22.20;99.90
2050;DHT22;8478;49.208;8.806;2022-07-29T02:00:14;22.10;99.90
2050;DHT22;8478;49.208;8.806;2022-07-29T02:02:43;22.10;99.90
2050;DHT22;8478;49.208;8.806;2022-07-29T02:05:12;22.10;99.90
2050;DHT22;8478;49.208;8.806;2022-07-29T02:07:40;22.10;99.90
2050;DHT22;8478;49.208;8.806;2022-07-29T02:10:08;22.10;99.90
2050;DHT22;8478;49.208;8.806;2022-07-29T02:12:35;22.10;99.90
2050;DHT22;8478;49.208;8.806;2022-07-29T02:15:03;22.10;99.90
2050;DHT22;8478;49.208;8.806;2022-07-29T02:17:39;22.10;99.90
2050;DHT22;8478;49.208;8.806;2022-07-29T02:20:07;22.10;99.90
2050;DHT22;8478;49.208;8.806;2022-07-29T02:22:36;22.10;99.90
2050;DHT22;8478;49.208;8.806;2022-07-29T02:25:03;22.10;99.90
2050;DHT22;8478;49.208;8.806;2022-07-29T02:27:30;22.10;99.90
2050;DHT22;8478;49.208;8.806;2022-07-29T02:29:58;22.10;99.90
2050;DHT22;8478;49.208;8.806;2022-07-29T02:32:26;22.10;99.90
2050;DHT22;8478;49.208;8.806;2022-07-29T02:34:54;22.10;99.90
2050;DHT22;8478;49.208;8.806;2022-07-29T02:37:21;22.10;99.90
2050;DHT22;8478;49.208;8.806;2022-07-29T02:39:48;22.10;99.90
2050;DHT22;8478;49.208;8.806;2022-07-29T02:42:18;22.10;99.90
2050;DHT22;8478;49.208;8.806;2022-07-29T02:44:46;22.10;99.90
2050;DHT22;8478;49.208;8.806;2022-07-29T02:50:32;22.10;99.90
2050;DHT22;8478;49.208;8.806;2022-07-29T02:55:53;22.10;99.90
2050;DHT22;8478;49.208;8.806;2022-07-29T02:58:36;22.20;99.90
2050;DHT22;8478;49.208;8.806;2022-07-29T03:01:08;22.20;99.90
2050;DHT22;8478;49.208;8.806;2022-07-29T03:03:37;22.20;99.90
2050;DHT22;8478;49.208;8.806;2022-07-29T03:06:05;22.20;99.90
2050;DHT22;8478;49.208;8.806;2022-07-29T03:08:32;22.10;99.90
2050;DHT22;8478;49.208;8.806;2022-07-29T03:11:00;22.10;99.90
2050;DHT22;8478;49.208;8.806;2022-07-29T03:13:27;22.10;99.90
2050;DHT22;8478;49.208;8.806;2022-07-29T03:15:55;22.10;99.90
2050;DHT22;8478;49.208;8.806;2022-07-29T03:18:21;22.10;99.90
2050;DHT22;8478;49.208;8.806;2022-07-29T03:20:47;22.10;99.90
2050;DHT22;8478;49.208;8.806;2022-07-29T03:23:21;22.10;99.90
2050;DHT22;8478;49.208;8.806;2022-07-29T03:25:49;22.10;99.90
2050;DHT22;8478;49.208;8.806;2022-07-29T03:28:15;22.10;99.90
2050;DHT22;8478;49.208;8.806;2022-07-29T03:30:41;22.10;99.90
2050;DHT22;8478;49.208;8.806;2022-07-29T03:33:06;22.10;99.90
2050;DHT22;8478;49.208;8.806;2022-07-29T03:35:32;22.10;99.90
2050;DHT22;8478;49.208;8.806;2022-07-29T03:37:58;22.10;99.90
2050;DHT22;8478;49.208;8.806;2022-07-29T03:40:56;22.10;99.90
2050;DHT22;8478;49.208;8.806;2022-07-29T03:43:24;22.10;99.90
2050;DHT22;8478;49.208;8.806;2022-07-29T03:45:55;22.10;99.90
2050;DHT22;8478;49.208;8.806;2022-07-29T03:48:24;22.10;99.90
2050;DHT22;8478;49.208;8.806;2022-07-29T03:50:51;22.10;99.90
2050;DHT22;8478;49.208;8.806;2022-07-29T03:53:17;22.10;99.90
2050;DHT22;8478;49.208;8.806;2022-07-29T03:55:46;22.10;99.90
2050;DHT22;8478;49.208;8.806;2022-07-29T03:58:14;22.10;99.90
2050;DHT22;8478;49.208;8.806;2022-07-29T04:00:42;22.10;99.90
2050;DHT22;8478;49.208;8.806;2022-07-29T04:03:09;22.10;99.90
2050;DHT22;8478;49.208;8.806;2022-07-29T04:05:35;22.00;99.90
2050;DHT22;8478;49.208;8.806;2022-07-29T04:08:01;22.00;99.90
2050;DHT22;8478;49.208;8.806;2022-07-29T04:10:27;22.00;99.90
2050;DHT22;8478;49.208;8.806;2022-07-29T04:12:52;22.00;99.90
2050;DHT22;8478;49.208;8.806;2022-07-29T04:15:18;22.00;99.90
2050;DHT22;8478;49.208;8.806;2022-07-29T04:17:45;22.00;99.90
2050;DHT22;8478;49.208;8.806;2022-07-29T04:20:11;22.00;99.90
2050;DHT22;8478;49.208;8.806;2022-07-29T04:22:39;21.90;99.90
2050;DHT22;8478;49.208;8.806;2022-07-29T04:25:05;22.00;99.90
2050;DHT22;8478;49.208;8.806;2022-07-29T04:27:31;22.00;99.90
2050;DHT22;8478;49.208;8.806;2022-07-29T04:29:57;22.00;99.90
2050;DHT22;8478;49.208;8.806;2022-07-29T04:32:23;22.00;99.90
2050;DHT22;8478;49.208;8.806;2022-07-29T04:34:49;22.00;99.90
2050;DHT22;8478;49.208;8.806;2022-07-29T04:37:15;22.00;99.90
2050;DHT22;8478;49.208;8.806;2022-07-29T04:39:40;22.00;99.90
2050;DHT22;8478;49.208;8.806;2022-07-29T04:42:06;22.00;99.90
2050;DHT22;8478;49.208;8.806;2022-07-29T04:44:32;22.00;99.90
2050;DHT22;8478;49.208;8.806;2022-07-29T04:46:58;22.00;99.90
2050;DHT22;8478;49.208;8.806;2022-07-29T04:49:23;22.00;99.90
2050;DHT22;8478;49.208;8.806;2022-07-29T04:51:49;22.00;99.90
2050;DHT22;8478;49.208;8.806;2022-07-29T04:54:15;22.00;99.90
2050;DHT22;8478;49.208;8.806;2022-07-29T04:56:40;22.00;99.90
2050;DHT22;8478;49.208;8.806;2022-07-29T04:59:07;22.00;99.90
2050;DHT22;8478;49.208;8.806;2022-07-29T05:01:32;22.00;99.90
2050;DHT22;8478;49.208;8.806;2022-07-29T05:03:58;22.00;99.90
2050;DHT22;8478;49.208;8.806;2022-07-29T05:06:24;22.00;99.90
2050;DHT22;8478;49.208;8.806;2022-07-29T05:08:49;22.00;99.90
2050;DHT22;8478;49.208;8.806;2022-07-29T05:11:15;22.00;99.90
2050;DHT22;8478;49.208;8.806;2022-07-29T05:13:41;22.00;99.90
2050;DHT22;8478;49.208;8.806;2022-07-29T05:16:08;22.00;99.90
2050;DHT22;8478;49.208;8.806;2022-07-29T05:18:34;22.00;99.90
2050;DHT22;8478;49.208;8.806;2022-07-29T05:20:59;22.00;99.90
2050;DHT22;8478;49.208;8.806;2022-07-29T05:23:25;22.00;99.90
2050;DHT22;8478;49.208;8.806;2022-07-29T05:25:51;22.00;99.90
2050;DHT22;8478;49.208;8.806;2022-07-29T05:28:16;22.00;99.90
2050;DHT22;8478;49.208;8.806;2022-07-29T05:30:42;22.00;99.90
2050;DHT22;8478;49.208;8.806;2022-07-29T05:33:09;22.00;99.90
2050;DHT22;8478;49.208;8.806;2022-07-29T05:35:35;22.00;99.90
2050;DHT22;8478;49.208;8.806;2022-07-29T05:38:03;22.00;99.90
2050;DHT22;8478;49.208;8.806;2022-07-29T05:40:28;22.00;99.90
2050;DHT22;8478;49.208;8.806;2022-07-29T05:42:54;22.00;99.90
2050;DHT22;8478;49.208;8.806;2022-07-29T05:45:20;22.00;99.90
2050;DHT22;8478;49.208;8.806;2022-07-29T05:47:46;22.00;99.90
2050;DHT22;8478;49.208;8.806;2022-07-29T05:50:12;22.00;99.90
2050;DHT22;8478;49.208;8.806;2022-07-29T05:52:38;22.00;99.90
2050;DHT22;8478;49.208;8.806;2022-07-29T05:55:04;22.00;99.90
2050;DHT22;8478;49.208;8.806;2022-07-29T05:57:31;22.00;99.90
2050;DHT22;8478;49.208;8.806;2022-07-29T05:59:56;22.00;99.90
2050;DHT22;8478;49.208;8.806;2022-07-29T06:02:22;22.00;99.90
2050;DHT22;8478;49.208;8.806;2022-07-29T06:04:48;22.00;99.90
2050;DHT22;8478;49.208;8.806;2022-07-29T06:07:14;22.00;99.90
2050;DHT22;8478;49.208;8.806;2022-07-29T06:09:41;22.00;99.90
2050;DHT22;8478;49.208;8.806;2022-07-29T06:12:07;22.00;99.90
2050;DHT22;8478;49.208;8.806;2022-07-29T06:14:33;22.00;99.90
2050;DHT22;8478;49.208;8.806;2022-07-29T06:16:59;22.00;99.90
2050;DHT22;8478;49.208;8.806;2022-07-29T06:19:24;22.00;99.90
2050;DHT22;8478;49.208;8.806;2022-07-29T06:21:51;22.00;99.90
2050;DHT22;8478;49.208;8.806;2022-07-29T06:24:16;21.90;99.90
2050;DHT22;8478;49.208;8.806;2022-07-29T06:26:42;21.90;99.90
2050;DHT22;8478;49.208;8.806;2022-07-29T06:29:09;21.90;99.90
2050;DHT22;8478;49.208;8.806;2022-07-29T06:31:36;21.90;99.90
2050;DHT22;8478;49.208;8.806;2022-07-29T06:34:02;21.90;99.90
2050;DHT22;8478;49.208;8.806;2022-07-29T06:36:28;21.90;99.90
2050;DHT22;8478;49.208;8.806;2022-07-29T06:38:54;21.90;99.90
2050;DHT22;8478;49.208;8.806;2022-07-29T06:41:20;21.90;99.90
2050;DHT22;8478;49.208;8.806;2022-07-29T06:43:46;21.90;99.90
2050;DHT22;8478;49.208;8.806;2022-07-29T06:46:14;21.90;99.90
2050;DHT22;8478;49.208;8.806;2022-07-29T06:48:41;21.90;99.90
2050;DHT22;8478;49.208;8.806;2022-07-29T06:51:10;21.90;99.90
2050;DHT22;8478;49.208;8.806;2022-07-29T06:53:39;21.90;99.90
2050;DHT22;8478;49.208;8.806;2022-07-29T06:56:06;21.90;99.90
2050;DHT22;8478;49.208;8.806;2022-07-29T06:58:34;21.90;99.90
2050;DHT22;8478;49.208;8.806;2022-07-29T07:01:05;21.90;99.90
2050;DHT22;8478;49.208;8.806;2022-07-29T07:03:31;21.90;99.90
2050;DHT22;8478;49.208;8.806;2022-07-29T07:05:57;22.00;99.90
2050;DHT22;8478;49.208;8.806;2022-07-29T07:08:23;22.00;99.90
2050;DHT22;8478;49.208;8.806;2022-07-29T07:10:50;22.00;99.90
2050;DHT22;8478;49.208;8.806;2022-07-29T07:13:16;22.00;99.90
2050;DHT22;8478;49.208;8.806;2022-07-29T07:15:43;22.00;99.90
2050;DHT22;8478;49.208;8.806;2022-07-29T07:18:08;22.00;99.90
2050;DHT22;8478;49.208;8.806;2022-07-29T07:20:35;22.00;99.90
2050;DHT22;8478;49.208;8.806;2022-07-29T07:23:00;22.10;99.90
2050;DHT22;8478;49.208;8.806;2022-07-29T07:25:26;22.10;99.90
2050;DHT22;8478;49.208;8.806;2022-07-29T07:27:52;22.10;99.90
2050;DHT22;8478;49.208;8.806;2022-07-29T07:30:17;22.10;99.90
2050;DHT22;8478;49.208;8.806;2022-07-29T07:32:43;22.10;99.90
2050;DHT22;8478;49.208;8.806;2022-07-29T07:35:10;22.10;99.90
2050;DHT22;8478;49.208;8.806;2022-07-29T07:37:36;22.20;99.90
2050;DHT22;8478;49.208;8.806;2022-07-29T07:40:03;22.20;99.90
2050;DHT22;8478;49.208;8.806;2022-07-29T07:42:28;22.20;99.90
2050;DHT22;8478;49.208;8.806;2022-07-29T07:44:54;22.20;99.90
2050;DHT22;8478;49.208;8.806;2022-07-29T07:47:20;22.20;99.90
2050;DHT22;8478;49.208;8.806;2022-07-29T07:49:46;22.20;99.90
2050;DHT22;8478;49.208;8.806;2022-07-29T07:52:13;22.20;99.90
2050;DHT22;8478;49.208;8.806;2022-07-29T07:54:39;22.20;99.90
2050;DHT22;8478;49.208;8.806;2022-07-29T07:57:04;22.20;99.90
2050;DHT22;8478;49.208;8.806;2022-07-29T07:59:30;22.20;99.90
2050;DHT22;8478;49.208;8.806;2022-07-29T08:01:56;22.20;99.90
2050;DHT22;8478;49.208;8.806;2022-07-29T08:04:22;22.20;99.90
2050;DHT22;8478;49.208;8.806;2022-07-29T08:06:48;22.20;99.90
2050;DHT22;8478;49.208;8.806;2022-07-29T08:09:15;22.20;99.90
2050;DHT22;8478;49.208;8.806;2022-07-29T08:11:40;22.20;99.90
2050;DHT22;8478;49.208;8.806;2022-07-29T08:14:06;22.20;99.90
2050;DHT22;8478;49.208;8.806;2022-07-29T08:16:32;22.20;99.90
2050;DHT22;8478;49.208;8.806;2022-07-29T08:18:57;22.20;99.90
2050;DHT22;8478;49.208;8.806;2022-07-29T08:21:24;22.20;99.90
2050;DHT22;8478;49.208;8.806;2022-07-29T08:23:50;22.20;99.90
2050;DHT22;8478;49.208;8.806;2022-07-29T08:26:19;22.20;99.90
2050;DHT22;8478;49.208;8.806;2022-07-29T08:28:45;22.20;99.90
2050;DHT22;8478;49.208;8.806;2022-07-29T08:31:12;22.20;99.90
2050;DHT22;8478;49.208;8.806;2022-07-29T08:33:38;22.20;99.90
2050;DHT22;8478;49.208;8.806;2022-07-29T08:36:05;22.20;99.90
2050;DHT22;8478;49.208;8.806;2022-07-29T08:38:31;22.20;99.90
2050;DHT22;8478;49.208;8.806;2022-07-29T08:40:58;22.10;99.90
2050;DHT22;8478;49.208;8.806;2022-07-29T08:43:25;22.20;99.90
2050;DHT22;8478;49.208;8.806;2022-07-29T08:45:51;22.10;99.90
2050;DHT22;8478;49.208;8.806;2022-07-29T08:48:19;22.10;99.90
2050;DHT22;8478;49.208;8.806;2022-07-29T08:50:46;22.10;99.90
2050;DHT22;8478;49.208;8.806;2022-07-29T08:53:14;22.10;99.90
2050;DHT22;8478;49.208;8.806;2022-07-29T08:55:45;22.20;99.90
2050;DHT22;8478;49.208;8.806;2022-07-29T08:58:13;22.10;99.90
2050;DHT22;8478;49.208;8.806;2022-07-29T09:00:42;22.10;99.90
2050;DHT22;8478;49.208;8.806;2022-07-29T09:03:09;22.10;99.90
2050;DHT22;8478;49.208;8.806;2022-07-29T09:05:41;22.10;99.90
2050;DHT22;8478;49.208;8.806;2022-07-29T09:08:08;22.10;99.90
2050;DHT22;8478;49.208;8.806;2022-07-29T09:10:35;22.10;99.90
2050;DHT22;8478;49.208;8.806;2022-07-29T09:13:01;22.10;99.90
2050;DHT22;8478;49.208;8.806;2022-07-29T09:15:26;22.10;99.90
2050;DHT22;8478;49.208;8.806;2022-07-29T09:17:52;22.10;99.90
2050;DHT22;8478;49.208;8.806;2022-07-29T09:20:20;22.10;99.90
2050;DHT22;8478;49.208;8.806;2022-07-29T09:22:47;22.10;99.90
2050;DHT22;8478;49.208;8.806;2022-07-29T09:25:31;22.10;99.90
2050;DHT22;8478;49.208;8.806;2022-07-29T09:28:08;22.20;99.90
2050;DHT22;8478;49.208;8.806;2022-07-29T09:30:35;22.20;99.90
2050;DHT22;8478;49.208;8.806;2022-07-29T09:33:02;22.20;99.90
2050;DHT22;8478;49.208;8.806;2022-07-29T09:35:29;22.20;99.90
2050;DHT22;8478;49.208;8.806;2022-07-29T09:37:56;22.20;99.90
2050;DHT22;8478;49.208;8.806;2022-07-29T09:40:24;22.20;99.90
2050;DHT22;8478;49.208;8.806;2022-07-29T09:42:51;22.20;99.90
2050;DHT22;8478;49.208;8.806;2022-07-29T09:45:31;22.20;99.90
2050;DHT22;8478;49.208;8.806;2022-07-29T09:47:58;22.20;99.90
2050;DHT22;8478;49.208;8.806;2022-07-29T09:50:39;22.20;99.90
2050;DHT22;8478;49.208;8.806;2022-07-29T09:53:05;22.20;99.90
2050;DHT22;8478;49.208;8.806;2022-07-29T09:55:31;22.20;99.90
2050;DHT22;8478;49.208;8.806;2022-07-29T09:58:20;22.20;99.90
2050;DHT22;8478;49.208;8.806;2022-07-29T10:00:47;22.20;99.90
2050;DHT22;8478;49.208;8.806;2022-07-29T10:03:14;22.20;99.90
2050;DHT22;8478;49.208;8.806;2022-07-29T10:05:41;22.20;99.90
2050;DHT22;8478;49.208;8.806;2022-07-29T10:08:08;22.20;99.90
2050;DHT22;8478;49.208;8.806;2022-07-29T10:10:39;22.20;99.90
2050;DHT22;8478;49.208;8.806;2022-07-29T10:13:09;22.20;99.90
2050;DHT22;8478;49.208;8.806;2022-07-29T10:15:37;22.20;99.90
2050;DHT22;8478;49.208;8.806;2022-07-29T10:18:05;22.20;99.90
2050;DHT22;8478;49.208;8.806;2022-07-29T10:20:31;22.20;99.90
2050;DHT22;8478;49.208;8.806;2022-07-29T10:22:57;22.20;99.90
2050;DHT22;8478;49.208;8.806;2022-07-29T10:25:24;22.20;99.90
2050;DHT22;8478;49.208;8.806;2022-07-29T10:27:51;22.20;99.90
2050;DHT22;8478;49.208;8.806;2022-07-29T10:30:17;22.20;99.90
2050;DHT22;8478;49.208;8.806;2022-07-29T10:43:51;22.20;99.90
2050;DHT22;8478;49.208;8.806;2022-07-29T10:46:17;22.20;99.90
2050;DHT22;8478;49.208;8.806;2022-07-29T10:49:06;22.20;99.90
2050;DHT22;8478;49.208;8.806;2022-07-29T10:54:38;22.20;99.90
2050;DHT22;8478;49.208;8.806;2022-07-29T10:57:22;22.20;99.90
2050;DHT22;8478;49.208;8.806;2022-07-29T11:05:18;22.20;99.90
2050;DHT22;8478;49.208;8.806;2022-07-29T11:10:38;22.20;99.90
2050;DHT22;8478;49.208;8.806;2022-07-29T11:13:04;22.20;99.90
2050;DHT22;8478;49.208;8.806;2022-07-29T11:15:56;22.20;99.90
2050;DHT22;8478;49.208;8.806;2022-07-29T11:18:22;22.20;99.90
2050;DHT22;8478;49.208;8.806;2022-07-29T11:20:49;22.20;99.90
2050;DHT22;8478;49.208;8.806;2022-07-29T11:23:29;22.20;99.90
2050;DHT22;8478;49.208;8.806;2022-07-29T11:29:03;22.20;99.90
2050;DHT22;8478;49.208;8.806;2022-07-29T11:31:39;22.20;99.90
2050;DHT22;8478;49.208;8.806;2022-07-29T11:34:27;22.30;99.90
2050;DHT22;8478;49.208;8.806;2022-07-29T11:39:40;22.30;99.90
2050;DHT22;8478;49.208;8.806;2022-07-29T11:47:21;22.30;99.90
2050;DHT22;8478;49.208;8.806;2022-07-29T11:49:48;22.30;99.90
2050;DHT22;8478;49.208;8.806;2022-07-29T11:52:14;22.30;99.90
2050;DHT22;8478;49.208;8.806;2022-07-29T11:54:42;22.30;99.90
2050;DHT22;8478;49.208;8.806;2022-07-29T11:57:08;22.30;99.90
2050;DHT22;8478;49.208;8.806;2022-07-29T11:59:42;22.30;99.90
2050;DHT22;8478;49.208;8.806;2022-07-29T12:02:08;22.30;99.90
2050;DHT22;8478;49.208;8.806;2022-07-29T12:04:47;22.30;99.90
2050;DHT22;8478;49.208;8.806;2022-07-29T12:07:13;22.30;99.90
2050;DHT22;8478;49.208;8.806;2022-07-29T12:09:39;22.30;99.90
2050;DHT22;8478;49.208;8.806;2022-07-29T12:12:05;22.40;99.90
2050;DHT22;8478;49.208;8.806;2022-07-29T12:14:32;22.40;99.90
2050;DHT22;8478;49.208;8.806;2022-07-29T12:16:59;22.40;99.90
2050;DHT22;8478;49.208;8.806;2022-07-29T12:19:28;22.40;99.90
2050;DHT22;8478;49.208;8.806;2022-07-29T12:21:55;22.40;99.90
2050;DHT22;8478;49.208;8.806;2022-07-29T12:24:24;22.40;99.90
2050;DHT22;8478;49.208;8.806;2022-07-29T12:26:54;22.40;99.90
2050;DHT22;8478;49.208;8.806;2022-07-29T12:29:20;22.40;99.90
2050;DHT22;8478;49.208;8.806;2022-07-29T12:31:46;22.40;99.90
2050;DHT22;8478;49.208;8.806;2022-07-29T12:34:13;22.40;99.90
2050;DHT22;8478;49.208;8.806;2022-07-29T12:36:43;22.40;99.90
2050;DHT22;8478;49.208;8.806;2022-07-29T12:39:09;22.40;99.90
2050;DHT22;8478;49.208;8.806;2022-07-29T12:41:36;22.40;99.90
2050;DHT22;8478;49.208;8.806;2022-07-29T12:44:02;22.40;99.90
2050;DHT22;8478;49.208;8.806;2022-07-29T12:46:28;22.40;99.90
2050;DHT22;8478;49.208;8.806;2022-07-29T12:48:55;22.40;99.90
2050;DHT22;8478;49.208;8.806;2022-07-29T12:51:31;22.40;99.90
2050;DHT22;8478;49.208;8.806;2022-07-29T12:54:11;22.40;99.90
2050;DHT22;8478;49.208;8.806;2022-07-29T12:56:43;22.40;99.90
2050;DHT22;8478;49.208;8.806;2022-07-29T12:59:19;22.40;99.90
2050;DHT22;8478;49.208;8.806;2022-07-29T13:01:47;22.40;99.90
2050;DHT22;8478;49.208;8.806;2022-07-29T13:04:31;22.40;99.90
2050;DHT22;8478;49.208;8.806;2022-07-29T13:07:07;22.40;99.90
2050;DHT22;8478;49.208;8.806;2022-07-29T13:12:07;22.40;99.90
2050;DHT22;8478;49.208;8.806;2022-07-29T13:14:44;22.40;99.90
2050;DHT22;8478;49.208;8.806;2022-07-29T13:17:22;22.40;99.90
2050;DHT22;8478;49.208;8.806;2022-07-29T13:20:14;22.40;99.90
2050;DHT22;8478;49.208;8.806;2022-07-29T13:22:41;22.40;99.90
2050;DHT22;8478;49.208;8.806;2022-07-29T13:25:08;22.40;99.90
2050;DHT22;8478;49.208;8.806;2022-07-29T13:27:36;22.40;99.90
2050;DHT22;8478;49.208;8.806;2022-07-29T13:30:07;22.40;99.90
2050;DHT22;8478;49.208;8.806;2022-07-29T13:32:34;22.40;99.90
2050;DHT22;8478;49.208;8.806;2022-07-29T13:35:04;22.40;99.90
2050;DHT22;8478;49.208;8.806;2022-07-29T13:37:30;22.40;99.90
2050;DHT22;8478;49.208;8.806;2022-07-29T13:39:58;22.50;99.90
2050;DHT22;8478;49.208;8.806;2022-07-29T13:42:24;22.50;99.90
2050;DHT22;8478;49.208;8.806;2022-07-29T13:44:51;22.40;99.90
2050;DHT22;8478;49.208;8.806;2022-07-29T13:47:18;22.50;99.90
2050;DHT22;8478;49.208;8.806;2022-07-29T13:49:44;22.50;99.90
2050;DHT22;8478;49.208;8.806;2022-07-29T13:52:10;22.50;99.90
2050;DHT22;8478;49.208;8.806;2022-07-29T13:54:36;22.50;99.90
2050;DHT22;8478;49.208;8.806;2022-07-29T13:57:03;22.50;99.90
2050;DHT22;8478;49.208;8.806;2022-07-29T13:59:29;22.50;99.90
2050;DHT22;8478;49.208;8.806;2022-07-29T14:01:55;22.50;99.90
2050;DHT22;8478;49.208;8.806;2022-07-29T14:04:20;22.50;99.90
2050;DHT22;8478;49.208;8.806;2022-07-29T14:06:48;22.50;99.90
2050;DHT22;8478;49.208;8.806;2022-07-29T14:09:14;22.50;99.90
2050;DHT22;8478;49.208;8.806;2022-07-29T14:11:40;22.50;99.90
2050;DHT22;8478;49.208;8.806;2022-07-29T14:14:06;22.50;99.90
2050;DHT22;8478;49.208;8.806;2022-07-29T14:16:31;22.50;99.90
2050;DHT22;8478;49.208;8.806;2022-07-29T14:18:57;22.50;99.90
2050;DHT22;8478;49.208;8.806;2022-07-29T14:21:23;22.50;99.90
2050;DHT22;8478;49.208;8.806;2022-07-29T14:23:48;22.50;99.90
2050;DHT22;8478;49.208;8.806;2022-07-29T14:26:14;22.50;99.90
2050;DHT22;8478;49.208;8.806;2022-07-29T14:28:40;22.50;99.90
2050;DHT22;8478;49.208;8.806;2022-07-29T14:31:06;22.50;99.90
2050;DHT22;8478;49.208;8.806;2022-07-29T14:33:31;22.50;99.90
2050;DHT22;8478;49.208;8.806;2022-07-29T14:35:57;22.50;99.90
2050;DHT22;8478;49.208;8.806;2022-07-29T14:38:23;22.50;99.90
2050;DHT22;8478;49.208;8.806;2022-07-29T14:40:49;22.60;99.90
2050;DHT22;8478;49.208;8.806;2022-07-29T14:43:14;22.60;99.90
2050;DHT22;8478;49.208;8.806;2022-07-29T14:45:40;22.60;99.90
2050;DHT22;8478;49.208;8.806;2022-07-29T14:48:06;22.60;99.90
2050;DHT22;8478;49.208;8.806;2022-07-29T14:50:33;22.60;99.90
2050;DHT22;8478;49.208;8.806;2022-07-29T14:52:59;22.60;99.90
2050;DHT22;8478;49.208;8.806;2022-07-29T14:55:25;22.60;99.90
2050;DHT22;8478;49.208;8.806;2022-07-29T14:57:51;22.60;99.90
2050;DHT22;8478;49.208;8.806;2022-07-29T15:00:17;22.60;99.90
2050;DHT22;8478;49.208;8.806;2022-07-29T15:02:43;22.60;99.90
2050;DHT22;8478;49.208;8.806;2022-07-29T15:05:09;22.60;99.90
2050;DHT22;8478;49.208;8.806;2022-07-29T15:07:35;22.60;99.90
2050;DHT22;8478;49.208;8.806;2022-07-29T15:10:01;22.60;99.90
2050;DHT22;8478;49.208;8.806;2022-07-29T15:12:30;22.60;99.90
2050;DHT22;8478;49.208;8.806;2022-07-29T15:14:55;22.60;99.90
2050;DHT22;8478;49.208;8.806;2022-07-29T15:17:21;22.60;99.90
2050;DHT22;8478;49.208;8.806;2022-07-29T15:19:47;22.60;99.90
2050;DHT22;8478;49.208;8.806;2022-07-29T15:22:13;22.60;99.90
2050;DHT22;8478;49.208;8.806;2022-07-29T15:24:38;22.60;99.90
2050;DHT22;8478;49.208;8.806;2022-07-29T15:27:04;22.60;99.90
2050;DHT22;8478;49.208;8.806;2022-07-29T15:29:30;22.60;99.90
2050;DHT22;8478;49.208;8.806;2022-07-29T15:31:56;22.60;99.90
2050;DHT22;8478;49.208;8.806;2022-07-29T15:34:21;22.60;99.90
2050;DHT22;8478;49.208;8.806;2022-07-29T15:36:52;22.60;99.90
2050;DHT22;8478;49.208;8.806;2022-07-29T15:39:18;22.60;99.90
2050;DHT22;8478;49.208;8.806;2022-07-29T15:41:43;22.60;99.90
2050;DHT22;8478;49.208;8.806;2022-07-29T15:44:09;22.60;99.90
2050;DHT22;8478;49.208;8.806;2022-07-29T15:46:35;22.60;99.90
2050;DHT22;8478;49.208;8.806;2022-07-29T15:49:19;22.60;99.90
2050;DHT22;8478;49.208;8.806;2022-07-29T15:51:44;22.60;99.90
2050;DHT22;8478;49.208;8.806;2022-07-29T15:54:10;22.60;99.90
2050;DHT22;8478;49.208;8.806;2022-07-29T15:56:36;22.60;99.90
2050;DHT22;8478;49.208;8.806;2022-07-29T15:59:02;22.60;99.90
2050;DHT22;8478;49.208;8.806;2022-07-29T16:01:28;22.60;99.90
2050;DHT22;8478;49.208;8.806;2022-07-29T16:03:54;22.60;99.90
2050;DHT22;8478;49.208;8.806;2022-07-29T16:06:20;22.60;99.90
2050;DHT22;8478;49.208;8.806;2022-07-29T16:08:46;22.70;99.90
2050;DHT22;8478;49.208;8.806;2022-07-29T16:11:12;22.60;99.90
2050;DHT22;8478;49.208;8.806;2022-07-29T16:13:37;22.60;99.90
2050;DHT22;8478;49.208;8.806;2022-07-29T16:16:03;22.60;99.90
2050;DHT22;8478;49.208;8.806;2022-07-29T16:18:29;22.60;99.90
2050;DHT22;8478;49.208;8.806;2022-07-29T16:20:55;22.60;99.90
2050;DHT22;8478;49.208;8.806;2022-07-29T16:23:20;22.60;99.90
2050;DHT22;8478;49.208;8.806;2022-07-29T16:25:48;22.60;99.90
2050;DHT22;8478;49.208;8.806;2022-07-29T16:28:14;22.60;99.90
2050;DHT22;8478;49.208;8.806;2022-07-29T16:30:40;22.60;99.90
2050;DHT22;8478;49.208;8.806;2022-07-29T16:33:05;22.60;99.90
2050;DHT22;8478;49.208;8.806;2022-07-29T16:35:31;22.60;99.90
2050;DHT22;8478;49.208;8.806;2022-07-29T16:37:57;22.60;99.90
2050;DHT22;8478;49.208;8.806;2022-07-29T16:40:23;22.60;99.90
2050;DHT22;8478;49.208;8.806;2022-07-29T16:42:48;22.60;99.90
2050;DHT22;8478;49.208;8.806;2022-07-29T16:45:17;22.70;99.90
2050;DHT22;8478;49.208;8.806;2022-07-29T16:47:43;22.60;99.90
2050;DHT22;8478;49.208;8.806;2022-07-29T16:50:09;22.60;99.90
2050;DHT22;8478;49.208;8.806;2022-07-29T16:52:35;22.70;99.90
2050;DHT22;8478;49.208;8.806;2022-07-29T16:55:02;22.70;99.90
2050;DHT22;8478;49.208;8.806;2022-07-29T16:57:28;22.70;99.90
2050;DHT22;8478;49.208;8.806;2022-07-29T16:59:53;22.70;99.90